Time;durP1;ratioP1;P1;durP2;ratioP2;P2;SDS_P1;SDS_P2;PMS_P1;PMS_P2;Temp;Humidity;BMP_temperature;BMP_pressure;BME280_temperature;BME280_humidity;BME280_pressure;Samples;Min_cycle;Max_cycle;Signal;HPM_P1;HPM_P2
2022/01/16 00:01:15;;;;;;;81.30;33.80;;;;;;;;;;5114110;28;20013;-69
2022/01/16 00:06:26;;;;;;;79.57;34.93;;;;;;;;;;5113965;28;20043;-68
2022/01/16 00:08:55;;;;;;;82.38;33.53;;;;;;;;;;5114619;28;20047;-67
2022/01/16 00:11:24;;;;;;;81.35;33.58;;;;;;;;;;5130000;28;20051;-70
2022/01/16 00:13:50;;;;;;;78.53;32.35;;;;;;;;;;5113682;28;20036;-66
2022/01/16 00:16:17;;;;;;;83.78;35.83;;;;;;;;;;5114066;28;20050;-68
2022/01/16 00:18:50;;;;;;;83.88;35.78;;;;;;;;;;5114098;28;20102;-68
2022/01/16 00:21:20;;;;;;;78.50;33.10;;;;;;;;;;5113903;28;20055;-68
2022/01/16 00:23:46;;;;;;;76.15;32.75;;;;;;;;;;5095642;28;20054;-69
2022/01/16 00:26:12;;;;;;;78.18;32.13;;;;;;;;;;5115870;28;20431;-71
2022/01/16 00:28:38;;;;;;;76.68;35.28;;;;;;;;;;5097837;28;20047;-68
2022/01/16 00:31:04;;;;;;;73.07;33.03;;;;;;;;;;5115925;28;20556;-69
2022/01/16 00:33:31;;;;;;;72.68;32.33;;;;;;;;;;5114359;28;20036;-69
2022/01/16 00:35:57;;;;;;;75.95;32.22;;;;;;;;;;5113698;28;20047;-68
2022/01/16 00:38:23;;;;;;;80.10;34.22;;;;;;;;;;5113702;28;20040;-68
2022/01/16 00:40:49;;;;;;;82.78;35.60;;;;;;;;;;5130319;28;20047;-68
2022/01/16 00:43:15;;;;;;;82.75;35.63;;;;;;;;;;5113618;28;20070;-69
2022/01/16 00:45:41;;;;;;;81.50;34.38;;;;;;;;;;5114355;28;20083;-69
2022/01/16 00:48:08;;;;;;;83.72;34.60;;;;;;;;;;5113548;28;20048;-69
2022/01/16 00:50:34;;;;;;;;;;;;;;;;;;5114018;28;20552;-70
2022/01/16 00:53:00;;;;;;;88.37;35.93;;;;;;;;;;5113523;28;19926;-69
2022/01/16 00:55:26;;;;;;;;;;;;;;;;;;5113964;28;20043;-69
2022/01/16 00:57:52;;;;;;;84.00;35.90;;;;;;;;;;5115953;28;19927;-69
2022/01/16 01:00:19;;;;;;;89.38;38.08;;;;;;;;;;5115963;28;20074;-69
2022/01/16 01:02:46;;;;;;;83.78;35.28;;;;;;;;;;5117552;28;20047;-69
2022/01/16 01:05:12;;;;;;;;;;;;;;;;;;5100628;28;20500;-68
2022/01/16 01:07:39;;;;;;;96.78;38.90;;;;;;;;;;5117099;28;19962;-69
2022/01/16 01:10:05;;;;;;;99.03;41.27;;;;;;;;;;5117251;28;20055;-66
2022/01/16 01:12:51;;;;;;;100.70;42.08;;;;;;;;;;5117174;28;20132;-67
2022/01/16 01:15:17;;;;;;;110.87;42.77;;;;;;;;;;5117110;28;20055;-68
2022/01/16 01:17:45;;;;;;;108.05;43.47;;;;;;;;;;5133170;27;20058;-69
2022/01/16 01:20:14;;;;;;;114.43;45.20;;;;;;;;;;5099333;28;20044;-68
2022/01/16 01:22:41;;;;;;;109.00;43.20;;;;;;;;;;5099704;28;20051;-71
2022/01/16 01:25:08;;;;;;;109.35;44.00;;;;;;;;;;5132627;27;20491;-69
2022/01/16 01:27:34;;;;;;;115.50;43.60;;;;;;;;;;5098705;28;20514;-69
2022/01/16 01:30:09;;;;;;;112.03;45.58;;;;;;;;;;5117355;28;20046;-67
2022/01/16 01:32:36;;;;;;;113.47;47.77;;;;;;;;;;5117409;28;20047;-66
2022/01/16 01:35:03;;;;;;;119.53;45.83;;;;;;;;;;5117126;28;20086;-67
2022/01/16 01:37:29;;;;;;;118.17;47.10;;;;;;;;;;5098637;28;20040;-68
2022/01/16 01:39:55;;;;;;;105.22;44.97;;;;;;;;;;5116583;28;20070;-67
2022/01/16 01:42:23;;;;;;;99.68;43.60;;;;;;;;;;5116593;28;20047;-66
2022/01/16 01:53:05;;;;;;;103.57;44.87;;;;;;;;;;5116855;28;20104;-69
2022/01/16 01:55:31;;;;;;;105.40;46.13;;;;;;;;;;5132268;27;20043;-69
2022/01/16 01:57:57;;;;;;;112.32;48.20;;;;;;;;;;5116177;28;20567;-70
2022/01/16 02:00:24;;;;;;;119.35;49.80;;;;;;;;;;5116320;28;20369;-69
2022/01/16 02:03:15;;;;;;;;;;;;;;;;;;5116575;28;20051;-70
2022/01/16 02:05:41;;;;;;;107.18;47.15;;;;;;;;;;5115975;27;19964;-71
2022/01/16 02:08:07;;;;;;;117.40;47.40;;;;;;;;;;5116142;28;20051;-69
2022/01/16 02:10:35;;;;;;;110.40;47.90;;;;;;;;;;5115995;28;20083;-70
2022/01/16 02:13:04;;;;;;;108.03;45.73;;;;;;;;;;5115845;28;20043;-70
2022/01/16 02:15:50;;;;;;;121.53;48.23;;;;;;;;;;5114534;28;20059;-70
2022/01/16 02:32:25;;;;;;;136.60;49.07;;;;;;;;;;5115605;28;20047;-71
2022/01/16 02:34:47;;;;;;;127.37;46.93;;;;;;;;;;5115758;28;20547;-69
2022/01/16 02:37:15;;;;;;;;;;;;;;;;;;5097996;28;20055;-69
2022/01/16 02:39:44;;;;;;;126.30;48.07;;;;;;;;;;5098345;28;19920;-69
2022/01/16 02:42:11;;;;;;;141.43;52.77;;;;;;;;;;5115350;28;20048;-70
2022/01/16 02:44:47;;;;;;;149.47;53.10;;;;;;;;;;5115341;28;20051;-70
2022/01/16 02:47:17;;;;;;;154.00;51.93;;;;;;;;;;5115834;28;20047;-69
2022/01/16 02:49:47;;;;;;;153.43;50.37;;;;;;;;;;5116310;28;20050;-70
2022/01/16 02:52:14;;;;;;;152.73;50.93;;;;;;;;;;5097257;28;20059;-70
2022/01/16 02:54:41;;;;;;;154.13;52.00;;;;;;;;;;5115767;28;20051;-70
2022/01/16 02:57:09;;;;;;;159.13;52.77;;;;;;;;;;5115600;28;20130;-73
2022/01/16 02:59:35;;;;;;;154.97;52.20;;;;;;;;;;5114776;28;20483;-73
2022/01/16 03:02:01;;;;;;;;;;;;;;;;;;5115201;28;20039;-68
2022/01/16 03:04:28;;;;;;;168.90;56.40;;;;;;;;;;5115096;28;19919;-67
2022/01/16 03:06:55;;;;;;;145.47;50.77;;;;;;;;;;5114901;28;20438;-69
2022/01/16 03:09:21;;;;;;;;;;;;;;;;;;5096767;28;20044;-71
2022/01/16 03:11:49;;;;;;;157.40;50.23;;;;;;;;;;5114283;28;19963;-69
2022/01/16 03:14:16;;;;;;;175.70;54.67;;;;;;;;;;5113774;28;20050;-71
2022/01/16 03:16:46;;;;;;;152.97;51.03;;;;;;;;;;5115718;28;20055;-70
2022/01/16 03:22:02;;;;;;;161.47;53.17;;;;;;;;;;5114594;28;20490;-71
2022/01/16 03:24:29;;;;;;;165.40;52.27;;;;;;;;;;5114688;28;20056;-73
2022/01/16 03:26:57;;;;;;;151.33;51.60;;;;;;;;;;5114533;28;20055;-72
2022/01/16 03:29:24;;;;;;;142.90;50.40;;;;;;;;;;5114506;28;20040;-71
2022/01/16 03:31:50;;;;;;;144.03;50.03;;;;;;;;;;5114494;28;20055;-70
2022/01/16 03:34:16;;;;;;;155.95;54.20;;;;;;;;;;5114422;28;20036;-70
2022/01/16 03:36:42;;;;;;;162.35;52.15;;;;;;;;;;5114470;28;20048;-71
2022/01/16 03:39:08;;;;;;;160.52;53.83;;;;;;;;;;5114378;28;20126;-71
2022/01/16 03:41:35;;;;;;;159.13;52.13;;;;;;;;;;5114319;28;20050;-70
2022/01/16 03:44:02;;;;;;;;;;;;;;;;;;5115251;28;20131;-76
2022/01/16 03:46:35;;;;;;;164.60;55.72;;;;;;;;;;5114319;28;19926;-72
2022/01/16 03:49:02;;;;;;;156.50;53.27;;;;;;;;;;5114648;28;20070;-73
2022/01/16 03:51:28;;;;;;;143.30;50.50;;;;;;;;;;5114208;28;20045;-73
2022/01/16 03:53:54;;;;;;;157.85;55.33;;;;;;;;;;5097082;28;20377;-68
2022/01/16 03:56:20;;;;;;;166.13;53.40;;;;;;;;;;5114669;28;20084;-75
2022/01/16 03:58:46;;;;;;;175.82;54.85;;;;;;;;;;5095802;28;20066;-74
2022/01/16 04:01:12;;;;;;;176.63;55.63;;;;;;;;;;5114052;28;20069;-71
2022/01/16 04:03:39;;;;;;;162.45;54.55;;;;;;;;;;5113770;28;20548;-70
2022/01/16 04:06:05;;;;;;;173.63;55.27;;;;;;;;;;5113898;28;20055;-71
2022/01/16 04:08:31;;;;;;;167.35;55.08;;;;;;;;;;5114845;28;20131;-73
2022/01/16 04:10:59;;;;;;;165.20;51.38;;;;;;;;;;5114057;28;20048;-71
2022/01/16 04:13:25;;;;;;;178.18;55.53;;;;;;;;;;5114552;28;20126;-72
2022/01/16 04:15:51;;;;;;;181.25;54.65;;;;;;;;;;5113543;28;20052;-71
2022/01/16 04:18:18;;;;;;;172.82;55.28;;;;;;;;;;5115091;28;20051;-71
2022/01/16 04:20:44;;;;;;;;;;;;;;;;;;5119377;28;20054;-71
2022/01/16 04:23:10;;;;;;;202.77;57.43;;;;;;;;;;5126832;28;19920;-72
2022/01/16 04:25:36;;;;;;;193.70;56.63;;;;;;;;;;5117678;28;20044;-72
2022/01/16 04:28:02;;;;;;;;;;;;;;;;;;5114311;28;20078;-71
2022/01/16 04:30:28;;;;;;;187.97;58.23;;;;;;;;;;5114262;28;19923;-72
2022/01/16 04:32:54;;;;;;;176.13;53.53;;;;;;;;;;5118007;28;20047;-69
2022/01/16 04:35:21;;;;;;;202.68;57.25;;;;;;;;;;5100630;28;20394;-74
2022/01/16 04:37:47;;;;;;;192.45;54.95;;;;;;;;;;5099863;28;20055;-71
2022/01/16 04:40:14;;;;;;;197.55;57.78;;;;;;;;;;5099682;28;20051;-66
2022/01/16 04:45:25;;;;;;;204.20;58.43;;;;;;;;;;5134117;27;20523;-70
2022/01/16 04:47:52;;;;;;;222.35;61.38;;;;;;;;;;5117653;28;20047;-67
2022/01/16 04:50:21;;;;;;;211.13;61.47;;;;;;;;;;5099743;28;20059;-70
2022/01/16 04:52:47;;;;;;;214.33;61.10;;;;;;;;;;5133574;27;20040;-69
2022/01/16 04:55:14;;;;;;;226.38;62.10;;;;;;;;;;5117432;28;20047;-70
2022/01/16 04:57:41;;;;;;;213.32;57.28;;;;;;;;;;5099446;28;20051;-67
2022/01/16 05:00:09;;;;;;;218.00;61.33;;;;;;;;;;5116682;28;20411;-74
2022/01/16 05:02:35;;;;;;;206.02;61.22;;;;;;;;;;5099186;28;20504;-70
2022/01/16 05:05:01;;;;;;;225.35;60.83;;;;;;;;;;5117357;28;20048;-75
2022/01/16 05:07:27;;;;;;;249.98;63.90;;;;;;;;;;5117282;28;20055;-72
2022/01/16 05:09:55;;;;;;;233.77;61.47;;;;;;;;;;5117258;28;20047;-71
2022/01/16 05:12:30;;;;;;;229.37;60.70;;;;;;;;;;5117093;28;20051;-70
2022/01/16 05:17:41;;;;;;;229.73;61.27;;;;;;;;;;5076521;28;20051;-71
2022/01/16 05:20:07;;;;;;;233.70;62.08;;;;;;;;;;5075415;28;20052;-71
2022/01/16 05:22:33;;;;;;;245.77;63.85;;;;;;;;;;5075101;28;20079;-70
2022/01/16 05:25:01;;;;;;;259.15;66.07;;;;;;;;;;5075624;28;20135;-70
2022/01/16 05:27:27;;;;;;;238.17;63.47;;;;;;;;;;5076828;28;20078;-70
2022/01/16 05:29:53;;;;;;;237.32;61.15;;;;;;;;;;5076183;28;20087;-71
2022/01/16 05:32:19;;;;;;;237.40;61.58;;;;;;;;;;5074935;28;20053;-70
2022/01/16 05:34:45;;;;;;;229.55;58.72;;;;;;;;;;5075857;28;20551;-73
2022/01/16 05:37:11;;;;;;;238.25;59.90;;;;;;;;;;5076082;28;20044;-72
2022/01/16 05:39:38;;;;;;;261.02;66.13;;;;;;;;;;5074847;28;20045;-70
2022/01/16 05:42:05;;;;;;;277.95;67.22;;;;;;;;;;5075637;28;20053;-70
2022/01/16 05:44:31;;;;;;;234.68;63.20;;;;;;;;;;5075530;28;20070;-69
2022/01/16 05:47:02;;;;;;;238.82;64.63;;;;;;;;;;5075944;28;20066;-68
2022/01/16 05:49:28;;;;;;;255.67;63.43;;;;;;;;;;5074828;28;20053;-68
2022/01/16 05:51:54;;;;;;;242.25;64.03;;;;;;;;;;5076410;28;20178;-69
2022/01/16 05:54:20;;;;;;;259.40;65.85;;;;;;;;;;5076226;28;20048;-70
2022/01/16 05:56:46;;;;;;;262.95;61.30;;;;;;;;;;5074683;28;20090;-71
2022/01/16 05:59:12;;;;;;;259.80;64.60;;;;;;;;;;5074224;28;20480;-70
2022/01/16 06:01:38;;;;;;;250.73;65.15;;;;;;;;;;5074330;28;20081;-71
2022/01/16 06:04:04;;;;;;;265.88;62.42;;;;;;;;;;5074635;28;20136;-70
2022/01/16 06:06:30;;;;;;;278.52;67.75;;;;;;;;;;5075471;28;20044;-69
2022/01/16 06:08:56;;;;;;;282.08;66.97;;;;;;;;;;5076268;28;20106;-69
2022/01/16 06:11:23;;;;;;;284.38;68.45;;;;;;;;;;5075897;28;20056;-72
2022/01/16 06:13:49;;;;;;;268.08;67.45;;;;;;;;;;5074477;28;20396;-68
2022/01/16 06:16:15;;;;;;;266.85;68.80;;;;;;;;;;5098480;28;20047;-68
2022/01/16 06:18:41;;;;;;;263.30;67.18;;;;;;;;;;5115933;28;20055;-72
2022/01/16 06:21:07;;;;;;;266.73;67.40;;;;;;;;;;5115937;28;20052;-70
2022/01/16 06:23:33;;;;;;;285.65;72.03;;;;;;;;;;5115799;28;20508;-71
2022/01/16 06:25:59;;;;;;;278.55;68.22;;;;;;;;;;5081813;28;20383;-71
2022/01/16 06:28:27;;;;;;;264.58;68.35;;;;;;;;;;5097573;28;20051;-69
2022/01/16 06:30:53;;;;;;;246.32;62.60;;;;;;;;;;5116232;28;20490;-68
2022/01/16 06:33:19;;;;;;;230.75;62.58;;;;;;;;;;5131609;27;20059;-71
2022/01/16 06:35:45;;;;;;;279.35;68.95;;;;;;;;;;5115617;28;20046;-69
2022/01/16 06:38:12;;;;;;;277.67;67.75;;;;;;;;;;5115576;28;20040;-70
2022/01/16 06:40:38;;;;;;;268.83;68.78;;;;;;;;;;5116250;28;20040;-69
2022/01/16 06:43:04;;;;;;;254.38;67.07;;;;;;;;;;5115430;28;20048;-70
2022/01/16 06:45:30;;;;;;;281.75;75.07;;;;;;;;;;5115306;28;20054;-70
2022/01/16 06:47:56;;;;;;;261.73;69.15;;;;;;;;;;5115346;28;20079;-69
2022/01/16 06:50:23;;;;;;;261.45;69.70;;;;;;;;;;5097277;28;20051;-70
2022/01/16 06:52:49;;;;;;;246.50;68.38;;;;;;;;;;5115271;28;20087;-68
2022/01/16 06:55:15;;;;;;;264.83;73.68;;;;;;;;;;5114684;28;20379;-67
2022/01/16 06:57:41;;;;;;;274.95;75.30;;;;;;;;;;5115808;28;20058;-67
2022/01/16 07:00:08;;;;;;;239.13;69.38;;;;;;;;;;5115645;28;20202;-68
2022/01/16 07:02:34;;;;;;;247.80;68.15;;;;;;;;;;5114950;28;20043;-68
2022/01/16 07:05:02;;;;;;;244.18;69.28;;;;;;;;;;5131030;27;20047;-68
2022/01/16 07:07:28;;;;;;;266.83;69.47;;;;;;;;;;5114950;28;20047;-68
2022/01/16 07:09:54;;;;;;;255.75;68.53;;;;;;;;;;5114804;28;20039;-67
2022/01/16 07:12:20;;;;;;;252.43;68.82;;;;;;;;;;5114896;28;20184;-67
2022/01/16 07:14:48;;;;;;;261.85;72.93;;;;;;;;;;5097284;28;20562;-67
2022/01/16 07:17:17;;;;;;;241.63;69.93;;;;;;;;;;5111091;28;20134;-68
2022/01/16 07:19:43;;;;;;;243.90;71.22;;;;;;;;;;5114718;28;20047;-67
2022/01/16 07:22:09;;;;;;;234.55;70.68;;;;;;;;;;5096509;28;20060;-67
2022/01/16 07:24:35;;;;;;;251.63;67.82;;;;;;;;;;5114554;28;20044;-68
2022/01/16 07:27:01;;;;;;;238.32;71.38;;;;;;;;;;5114625;28;20052;-68
2022/01/16 07:29:28;;;;;;;241.43;70.35;;;;;;;;;;5130396;27;20040;-69
2022/01/16 07:31:54;;;;;;;229.18;69.97;;;;;;;;;;5114507;28;20043;-68
2022/01/16 07:34:20;;;;;;;224.13;73.38;;;;;;;;;;5114431;28;20441;-68
2022/01/16 07:36:46;;;;;;;194.13;58.95;;;;;;;;;;5115170;28;20110;-69
2022/01/16 07:39:13;;;;;;;225.13;71.80;;;;;;;;;;5114404;28;20044;-68
2022/01/16 07:41:39;;;;;;;225.07;65.80;;;;;;;;;;5114060;28;20496;-68
2022/01/16 07:44:06;;;;;;;225.77;67.93;;;;;;;;;;5114277;28;20047;-68
2022/01/16 07:46:32;;;;;;;233.88;73.78;;;;;;;;;;5114129;28;20494;-69
2022/01/16 07:48:58;;;;;;;211.75;71.07;;;;;;;;;;5113706;28;20098;-68
2022/01/16 07:51:27;;;;;;;190.60;65.60;;;;;;;;;;5114450;28;20047;-69
2022/01/16 07:53:53;;;;;;;195.55;63.97;;;;;;;;;;5113306;28;20138;-66
2022/01/16 07:56:19;;;;;;;197.60;67.40;;;;;;;;;;5113606;28;20043;-68
2022/01/16 07:58:45;;;;;;;197.55;65.60;;;;;;;;;;5113045;28;20143;-68
2022/01/16 08:01:12;;;;;;;185.43;65.38;;;;;;;;;;5128538;27;20043;-68
2022/01/16 08:03:38;;;;;;;186.88;62.92;;;;;;;;;;5112334;28;20049;-68
2022/01/16 08:06:04;;;;;;;177.25;64.80;;;;;;;;;;5112155;28;20101;-68
2022/01/16 08:08:30;;;;;;;182.65;62.65;;;;;;;;;;5093934;28;20129;-69
2022/01/16 08:10:56;;;;;;;188.77;61.72;;;;;;;;;;5112643;28;20135;-68
2022/01/16 08:13:22;;;;;;;190.38;64.32;;;;;;;;;;5111108;28;20063;-67
2022/01/16 08:15:48;;;;;;;179.77;63.08;;;;;;;;;;5112389;28;20474;-69
2022/01/16 08:18:14;;;;;;;182.65;64.35;;;;;;;;;;5110248;28;20048;-68
2022/01/16 08:20:40;;;;;;;182.85;63.50;;;;;;;;;;5112931;28;20124;-68
2022/01/16 08:23:06;;;;;;;176.88;63.92;;;;;;;;;;5112232;28;20044;-68
2022/01/16 08:25:35;;;;;;;177.57;64.00;;;;;;;;;;5112135;28;20051;-68
2022/01/16 08:28:01;;;;;;;153.75;59.35;;;;;;;;;;5127786;28;20100;-68
2022/01/16 08:30:27;;;;;;;157.07;60.60;;;;;;;;;;5112079;28;20043;-68
2022/01/16 08:32:53;;;;;;;143.27;57.58;;;;;;;;;;5094804;28;20047;-68
2022/01/16 08:35:20;;;;;;;150.75;57.42;;;;;;;;;;5093886;28;20359;-68
2022/01/16 08:37:46;;;;;;;;;;;;;;;;;;5112303;28;20105;-68
2022/01/16 08:40:12;;;;;;;133.95;53.42;;;;;;;;;;5112064;28;19923;-67
2022/01/16 08:42:40;;;;;;;;;;;;;;;;;;5113117;28;20051;-68
2022/01/16 08:45:07;;;;;;;128.13;54.30;;;;;;;;;;5112024;28;19967;-67
2022/01/16 08:47:33;;;;;;;122.90;52.70;;;;;;;;;;5111998;28;20051;-68
2022/01/16 08:50:02;;;;;;;109.70;48.15;;;;;;;;;;5112224;28;20101;-67
2022/01/16 08:52:28;;;;;;;118.50;51.70;;;;;;;;;;5111899;28;20047;-68
2022/01/16 08:54:54;;;;;;;118.15;50.63;;;;;;;;;;5111934;28;20056;-68
2022/01/16 08:57:20;;;;;;;122.13;49.85;;;;;;;;;;5111939;28;20399;-68
2022/01/16 08:59:46;;;;;;;107.63;48.63;;;;;;;;;;5111828;28;20044;-68
2022/01/16 09:02:12;;;;;;;111.05;49.65;;;;;;;;;;5111980;28;20073;-68
2022/01/16 09:04:38;;;;;;;108.78;48.33;;;;;;;;;;5127652;28;20052;-69
2022/01/16 09:07:05;;;;;;;113.30;47.67;;;;;;;;;;5127349;28;20081;-69
2022/01/16 09:09:31;;;;;;;104.88;49.30;;;;;;;;;;5127084;28;20106;-68
2022/01/16 09:11:57;;;;;;;95.00;44.28;;;;;;;;;;5112101;28;20379;-69
2022/01/16 09:14:23;;;;;;;94.55;45.42;;;;;;;;;;5111780;28;20054;-68
2022/01/16 09:16:49;;;;;;;102.05;45.95;;;;;;;;;;5083453;28;20049;-69
2022/01/16 09:19:16;;;;;;;95.85;45.67;;;;;;;;;;5074096;28;20075;-67
2022/01/16 09:21:42;;;;;;;98.03;45.65;;;;;;;;;;5073657;28;20123;-68
2022/01/16 09:24:11;;;;;;;88.25;42.75;;;;;;;;;;5074726;28;20048;-68
2022/01/16 09:26:37;;;;;;;92.60;45.25;;;;;;;;;;5075027;28;20143;-68
2022/01/16 09:29:03;;;;;;;89.72;44.17;;;;;;;;;;5073208;28;20123;-68
2022/01/16 09:31:30;;;;;;;90.15;44.20;;;;;;;;;;5074514;28;20113;-68
2022/01/16 09:33:56;;;;;;;90.07;42.45;;;;;;;;;;5073109;28;20045;-68
2022/01/16 09:36:22;;;;;;;;;;;;;;;;;;5073666;28;20086;-68
2022/01/16 09:38:48;;;;;;;92.90;42.58;;;;;;;;;;5074192;28;19920;-69
2022/01/16 09:41:14;;;;;;;98.55;44.47;;;;;;;;;;5074274;28;20056;-67
2022/01/16 09:43:41;;;;;;;89.20;42.30;;;;;;;;;;5073319;28;20108;-68
2022/01/16 09:46:07;;;;;;;86.13;41.05;;;;;;;;;;5072929;28;20056;-69
2022/01/16 09:48:33;;;;;;;83.82;41.72;;;;;;;;;;5074087;28;20083;-67
2022/01/16 09:50:59;;;;;;;84.68;41.55;;;;;;;;;;5074876;28;20079;-68
2022/01/16 09:53:26;;;;;;;89.50;43.33;;;;;;;;;;5074236;28;20404;-68
2022/01/16 09:55:52;;;;;;;89.68;41.58;;;;;;;;;;5073467;28;20504;-69
2022/01/16 09:58:20;;;;;;;84.18;42.28;;;;;;;;;;5074489;28;20040;-68
2022/01/16 10:00:46;;;;;;;75.60;40.17;;;;;;;;;;5074711;28;20098;-69
2022/01/16 10:03:32;;;;;;;78.72;40.58;;;;;;;;;;5073989;28;20046;-68
2022/01/16 10:06:10;;;;;;;84.55;41.58;;;;;;;;;;5074390;28;20084;-68
2022/01/16 10:08:37;;;;;;;85.90;41.05;;;;;;;;;;5072341;28;20040;-67
2022/01/16 10:11:24;;;;;;;83.35;41.72;;;;;;;;;;5074389;28;20049;-68
2022/01/16 10:14:20;;;;;;;83.82;40.92;;;;;;;;;;5073094;28;20052;-68
2022/01/16 10:16:38;;;;;;;85.55;41.22;;;;;;;;;;5082144;28;20052;-68
2022/01/16 10:19:05;;;;;;;81.28;41.85;;;;;;;;;;5113954;28;20079;-68
2022/01/16 10:21:36;;;;;;;84.40;42.92;;;;;;;;;;5113876;28;20551;-67
2022/01/16 10:24:15;;;;;;;75.22;39.35;;;;;;;;;;5114413;28;20044;-68
2022/01/16 10:26:41;;;;;;;77.68;39.45;;;;;;;;;;5113732;28;20055;-68
2022/01/16 10:29:07;;;;;;;;;;;;;;;;;;5114275;28;20090;-68
2022/01/16 10:31:33;;;;;;;70.07;37.60;;;;;;;;;;5113546;28;19920;-68
2022/01/16 10:33:59;;;;;;;76.70;39.33;;;;;;;;;;5095619;28;20488;-67
2022/01/16 10:36:36;;;;;;;74.18;38.95;;;;;;;;;;5114196;28;20043;-67
2022/01/16 10:39:02;;;;;;;;;;;;;;;;;;5114318;28;20051;-68
2022/01/16 10:41:28;;;;;;;69.47;38.67;;;;;;;;;;5113809;28;19927;-67
2022/01/16 10:43:54;;;;;;;76.25;37.92;;;;;;;;;;5113658;28;20051;-68
2022/01/16 10:46:25;;;;;;;72.95;36.90;;;;;;;;;;5095340;28;20495;-68
2022/01/16 10:49:10;;;;;;;80.68;38.40;;;;;;;;;;5114362;28;20053;-70
2022/01/16 10:51:37;;;;;;;76.50;36.60;;;;;;;;;;5114460;28;20044;-68
2022/01/16 10:54:22;;;;;;;78.00;37.25;;;;;;;;;;5113769;28;20065;-68
2022/01/16 10:56:49;;;;;;;69.70;35.55;;;;;;;;;;5114154;28;20403;-67
2022/01/16 10:59:22;;;;;;;75.85;35.65;;;;;;;;;;5113244;28;20403;-67
2022/01/16 11:02:10;;;;;;;68.72;34.72;;;;;;;;;;5095277;28;20213;-68
2022/01/16 11:04:36;;;;;;;73.03;35.22;;;;;;;;;;5113503;28;20039;-68
2022/01/16 11:07:03;;;;;;;69.65;35.28;;;;;;;;;;5113072;28;20067;-67
2022/01/16 11:09:29;;;;;;;75.05;34.10;;;;;;;;;;5112990;28;20118;-68
2022/01/16 11:11:59;;;;;;;;;;;;;;;;;;5129521;27;20052;-68
2022/01/16 11:14:25;;;;;;;67.72;33.42;;;;;;;;;;5094899;28;19920;-68
2022/01/16 11:16:51;;;;;;;58.83;32.55;;;;;;;;;;5085007;28;20396;-68
2022/01/16 11:19:21;;;;;;;57.45;33.10;;;;;;;;;;5072150;28;20382;-68
2022/01/16 11:21:51;;;;;;;63.60;33.35;;;;;;;;;;5070963;28;20052;-68
2022/01/16 11:26:44;;;;;;;63.38;30.02;;;;;;;;;;5071876;28;20489;-69
2022/01/16 11:29:12;;;;;;;67.13;30.35;;;;;;;;;;5072604;28;20112;-68
2022/01/16 11:31:38;;;;;;;62.30;29.50;;;;;;;;;;5072145;28;20495;-68
2022/01/16 11:34:04;;;;;;;60.72;29.67;;;;;;;;;;5070838;28;20527;-68
2022/01/16 11:36:30;;;;;;;63.55;30.23;;;;;;;;;;5072119;28;20044;-69
2022/01/16 11:39:01;;;;;;;61.17;27.88;;;;;;;;;;5070909;28;20113;-69
2022/01/16 11:41:33;;;;;;;60.45;27.20;;;;;;;;;;5072207;28;20044;-69
2022/01/16 11:44:21;;;;;;;55.03;27.42;;;;;;;;;;5071633;28;20052;-71
2022/01/16 11:46:47;;;;;;;;;;;;;;;;;;5073057;28;20053;-69
2022/01/16 11:49:18;;;;;;;54.28;27.00;;;;;;;;;;5071775;28;20379;-69
2022/01/16 11:51:51;;;;;;;49.72;25.63;;;;;;;;;;5072518;28;20053;-68
2022/01/16 11:54:28;;;;;;;41.55;23.83;;;;;;;;;;5071587;28;20048;-69
2022/01/16 11:56:59;;;;;;;53.10;23.50;;;;;;;;;;5072286;28;20048;-68
2022/01/16 11:59:35;;;;;;;55.13;23.30;;;;;;;;;;5071294;28;20052;-70
2022/01/16 12:02:01;;;;;;;47.28;21.88;;;;;;;;;;5072243;28;20044;-71
2022/01/16 12:04:30;;;;;;;50.05;20.83;;;;;;;;;;5070685;28;20063;-69
2022/01/16 12:07:16;;;;;;;41.28;20.75;;;;;;;;;;5071578;28;20055;-67
2022/01/16 12:12:13;;;;;;;44.25;19.70;;;;;;;;;;5071839;28;20056;-69
2022/01/16 12:14:52;;;;;;;44.58;17.23;;;;;;;;;;5054708;28;20059;-68
2022/01/16 12:17:27;;;;;;;43.63;16.02;;;;;;;;;;5090598;28;20082;-68
2022/01/16 12:19:57;;;;;;;33.65;15.57;;;;;;;;;;5112697;28;20376;-69
2022/01/16 12:22:50;;;;;;;37.15;15.98;;;;;;;;;;5128056;28;20054;-68
2022/01/16 12:25:16;;;;;;;35.83;14.88;;;;;;;;;;5109616;28;20399;-70
2022/01/16 12:27:47;;;;;;;33.45;13.35;;;;;;;;;;5112535;28;20498;-68
2022/01/16 12:30:13;;;;;;;36.92;14.02;;;;;;;;;;5112174;28;20074;-67
2022/01/16 12:32:53;;;;;;;31.80;14.55;;;;;;;;;;5112051;28;20048;-67
2022/01/16 12:35:37;;;;;;;30.15;13.05;;;;;;;;;;5094000;28;20055;-69
2022/01/16 12:38:11;;;;;;;31.38;13.55;;;;;;;;;;5111989;28;20051;-71
2022/01/16 12:40:43;;;;;;;36.17;13.10;;;;;;;;;;5111940;28;20083;-70
2022/01/16 12:43:13;;;;;;;29.50;14.18;;;;;;;;;;5112484;28;20051;-69
2022/01/16 12:45:40;;;;;;;33.80;14.07;;;;;;;;;;5112216;28;20379;-69
2022/01/16 12:48:07;;;;;;;34.25;12.95;;;;;;;;;;5111244;28;20056;-68
2022/01/16 12:50:33;;;;;;;40.58;13.32;;;;;;;;;;5112405;28;20100;-69
2022/01/16 12:53:01;;;;;;;30.60;12.93;;;;;;;;;;5095848;28;20081;-69
2022/01/16 12:55:34;;;;;;;35.67;13.75;;;;;;;;;;5115832;28;20052;-77
2022/01/16 12:58:18;;;;;;;30.67;13.95;;;;;;;;;;5115742;28;20039;-70
2022/01/16 13:00:57;;;;;;;24.98;12.27;;;;;;;;;;5131574;27;20058;-69
2022/01/16 13:03:26;;;;;;;26.85;12.52;;;;;;;;;;5115560;28;20051;-69
2022/01/16 13:05:54;;;;;;;37.67;13.20;;;;;;;;;;5115690;28;20046;-69
2022/01/16 13:08:20;;;;;;;29.10;12.95;;;;;;;;;;5097409;28;20122;-70
2022/01/16 13:10:47;;;;;;;30.20;12.43;;;;;;;;;;5132189;27;20039;-70
2022/01/16 13:13:13;;;;;;;26.98;12.43;;;;;;;;;;5115339;28;20522;-70
2022/01/16 13:15:39;;;;;;;32.15;12.65;;;;;;;;;;5116161;28;20047;-69
2022/01/16 13:18:05;;;;;;;;;;;;;;;;;;5115903;28;20121;-69
2022/01/16 13:20:31;;;;;;;32.65;13.15;;;;;;;;;;5097337;28;19919;-69
2022/01/16 13:22:57;;;;;;;32.05;13.05;;;;;;;;;;5115491;28;20066;-71
2022/01/16 13:25:24;;;;;;;33.70;13.00;;;;;;;;;;5115264;28;20075;-69
2022/01/16 13:27:50;;;;;;;28.83;12.95;;;;;;;;;;5115056;28;20054;-68
2022/01/16 13:30:26;;;;;;;27.75;13.23;;;;;;;;;;5115109;28;20548;-70
2022/01/16 13:32:52;;;;;;;29.95;12.85;;;;;;;;;;5115093;28;20048;-72
2022/01/16 13:35:20;;;;;;;29.10;13.45;;;;;;;;;;5115245;28;20044;-69
2022/01/16 13:37:47;;;;;;;36.83;15.30;;;;;;;;;;5114904;28;20135;-69
2022/01/16 13:40:13;;;;;;;;;;;;;;;;;;5131354;27;20055;-67
2022/01/16 13:45:20;;;;;;;32.40;13.25;;;;;;;;;;5115335;28;20048;-68
2022/01/16 13:47:50;;;;;;;29.60;13.75;;;;;;;;;;5114402;28;20469;-69
2022/01/16 13:50:16;;;;;;;28.90;14.15;;;;;;;;;;5114887;28;20110;-69
2022/01/16 13:52:54;;;;;;;28.60;13.88;;;;;;;;;;5114700;28;20040;-69
2022/01/16 13:55:20;;;;;;;32.03;12.73;;;;;;;;;;5115511;28;20179;-71
2022/01/16 13:57:46;;;;;;;33.17;12.93;;;;;;;;;;5130535;27;20054;-70
2022/01/16 14:00:13;;;;;;;33.25;13.30;;;;;;;;;;5096228;28;20362;-67
2022/01/16 14:02:39;;;;;;;31.90;13.82;;;;;;;;;;5114362;28;20059;-69
2022/01/16 14:05:05;;;;;;;35.30;13.77;;;;;;;;;;5114071;28;20040;-68
2022/01/16 14:07:31;;;;;;;;;;;;;;;;;;5114801;28;20044;-69
2022/01/16 14:09:58;;;;;;;37.58;23.15;;;;;;;;;;5114377;28;20042;-70
2022/01/16 14:12:25;;;;;;;30.92;14.00;;;;;;;;;;5114326;28;20101;-70
2022/01/16 14:14:51;;;;;;;33.30;14.57;;;;;;;;;;5115062;28;20397;-71
2022/01/16 14:22:22;;;;;;;39.20;15.25;;;;;;;;;;5130481;27;20051;-69
2022/01/16 14:24:56;;;;;;;34.90;15.00;;;;;;;;;;5114151;28;20108;-79
2022/01/16 14:27:28;;;;;;;37.17;15.25;;;;;;;;;;5112647;28;20110;-83
2022/01/16 14:29:55;;;;;;;36.72;14.55;;;;;;;;;;5097283;28;20065;-83
2022/01/16 14:32:23;;;;;;;32.47;14.45;;;;;;;;;;5115825;28;20050;-83
2022/01/16 14:34:50;;;;;;;30.95;13.57;;;;;;;;;;5114124;28;20062;-80
2022/01/16 14:37:17;;;;;;;32.08;14.15;;;;;;;;;;5113862;28;20130;-79
2022/01/16 14:39:45;;;;;;;31.50;13.90;;;;;;;;;;5113436;28;20078;-74
2022/01/16 14:42:13;;;;;;;33.67;12.88;;;;;;;;;;5095303;28;20081;-75
2022/01/16 14:44:40;;;;;;;28.83;13.07;;;;;;;;;;5113574;28;20047;-82
2022/01/16 14:47:08;;;;;;;33.63;13.80;;;;;;;;;;5114454;28;20051;-77
2022/01/16 14:49:35;;;;;;;30.20;14.02;;;;;;;;;;5095537;28;20039;-78
2022/01/16 14:52:03;;;;;;;32.50;14.00;;;;;;;;;;5114312;28;20122;-84
2022/01/16 14:54:29;;;;;;;36.75;13.93;;;;;;;;;;5114027;27;20054;-81
2022/01/16 14:56:55;;;;;;;36.78;15.65;;;;;;;;;;5129359;27;20052;-79
2022/01/16 14:59:21;;;;;;;36.15;15.52;;;;;;;;;;5113429;28;20070;-77
2022/01/16 15:01:48;;;;;;;34.50;15.52;;;;;;;;;;5113547;28;20059;-76
2022/01/16 15:04:14;;;;;;;33.78;14.35;;;;;;;;;;5113018;28;20566;-76
2022/01/16 15:06:40;;;;;;;;;;;;;;;;;;5095296;28;20047;-76
2022/01/16 15:09:10;;;;;;;40.85;17.13;;;;;;;;;;5128675;27;19923;-78